Home > Products > Valid Products > TAF

000
FTUS41 KBUF 311700
TAFART
TAF
KART 311727Z 3118/0118 06005KT P6SM BKN035 OVC080
     FM010200 05005KT P6SM VCSH BKN035 OVC060
     FM011200 03010G16KT P6SM VCSH BKN035 OVC050
     FM011500 03011G17KT P6SM VCSH BKN050 OVC090=



000
FTUS41 KBUF 311700
TAFBUF
TAF
KBUF 311727Z 3118/0118 18007KT 6SM -SHRA BKN035 OVC060
     FM312000 08004KT 6SM -SHRA BKN030 OVC060
     FM010400 04005KT 6SM -SHRA BKN025 OVC060
     FM011200 02011G20KT 6SM -SHRA BKN025 OVC060=



000
FTUS41 KBUF 311700
TAFIAG
TAF
KIAG 311727Z 3118/0118 15006KT 6SM -SHRA SCT025 BKN035 OVC060
     FM311900 10005KT 6SM -SHRA BKN025 OVC060
     FM312200 06006KT 6SM -SHRA BKN025 OVC060
     FM010600 02007KT 6SM -SHRA BKN025 OVC060
     FM011200 02013G23KT 6SM -SHRA BKN025 OVC060=



000
FTUS41 KBUF 311700
TAFJHW
TAF
KJHW 311727Z 3118/0118 19005KT P6SM VCSH SCT025 OVC050
     FM311900 VRB03KT 6SM -SHRA BKN025 OVC050
     FM010300 02005KT 6SM -SHRA BKN015 OVC050
     FM011400 01010G16KT 6SM -SHRA BKN020 OVC050
      AMD LTD TO CLD VIS AND WIND=



000
FTUS41 KBUF 311700
TAFROC
TAF
KROC 311727Z 3118/0118 12004KT P6SM VCSH BKN035 OVC070
     FM312100 08005KT 6SM -SHRA BKN035 OVC060
     FM010200 07005KT 6SM -SHRA BKN030 OVC060
     FM010900 03007KT 6SM -SHRA BKN025 OVC060
     FM011200 02011G20KT 6SM -SHRA BKN025 OVC060=



000
FTUS41 KBUF 311500 AAA
TAFART
TAF AMD
KART 311508Z 3115/0112 10004KT P6SM BKN050 OVC060
     FM311900 06005KT P6SM OVC035
     FM010300 04007KT P6SM VCSH OVC035
     FM010800 03008KT P6SM VCSH OVC030=



000
FTUS41 KBUF 311500 AAA
TAFROC
TAF AMD
KROC 311508Z 3115/0112 16006KT P6SM OVC040
     FM312000 10005KT P6SM VCSH OVC035
     FM010000 08007KT P6SM -SHRA OVC030
     FM010300 05008KT 6SM -SHRA OVC020
     FM010600 05008KT 6SM -SHRA OVC007=



000
FTUS41 KBUF 311500 AAB
TAFIAG
TAF AMD
KIAG 311508Z 3115/0112 13007KT P6SM SCT035 OVC060
     FM311800 16004KT 6SM BR VCSH OVC030
     FM312000 12004KT 6SM -SHRA OVC030
     FM010300 06007KT 6SM -SHRA OVC015
     FM010700 04011KT 5SM -SHRA OVC009=



000
FTUS41 KBUF 311500 AAA
TAFJHW
TAF AMD
KJHW 311508Z 3115/0112 17004KT P6SM OVC040
     FM311900 VRB03KT 6SM -SHRA OVC020
     FM010300 08004KT 6SM -SHRA OVC007
     FM010500 05004KT 3SM -SHRA BR OVC003
      AMD LTD TO CLD VIS AND WIND=



000
FTUS41 KBUF 311500 AAA
TAFBUF
TAF AMD
KBUF 311508Z 3115/0112 15007KT P6SM FEW027 BKN060
     FM311700 19006KT P6SM VCSH SCT035 BKN060
     FM312000 VRB03KT 6SM -SHRA OVC030
     FM010500 05007KT 6SM -SHRA OVC012
     FM010800 04007KT 5SM -SHRA OVC007=



000
FTUS41 KBUF 311400 AAA
TAFIAG
TAF AMD
KIAG 311410Z 3114/0112 11004KT P6SM -RA VCSH SCT025 OVC035
     FM311500 13007KT P6SM OVC040
     FM311800 16004KT 6SM BR VCSH OVC030
     FM312000 12004KT 6SM -SHRA OVC030
     FM010300 06007KT 6SM -SHRA OVC015
     FM010700 04011KT 5SM -SHRA OVC009=



000
FTUS41 KBUF 311100
TAFART
TAF
KART 311133Z 3112/0112 VRB03KT P6SM BKN060
     FM311400 10004KT P6SM OVC045
     FM311900 06005KT P6SM OVC035
     FM010300 04007KT P6SM VCSH OVC035
     FM010800 03008KT P6SM VCSH OVC030=



000
FTUS41 KBUF 311100
TAFBUF
TAF
KBUF 311133Z 3112/0112 13006KT 6SM -DZ VCSH OVC045
     FM311400 15007KT P6SM OVC045
     FM311700 19006KT P6SM VCSH OVC035
     FM312000 VRB03KT 6SM -SHRA OVC030
     FM010500 05007KT 6SM -SHRA OVC012
     FM010800 04007KT 5SM -SHRA OVC007=



000
FTUS41 KBUF 311100
TAFROC
TAF
KROC 311133Z 3112/0112 21004KT P6SM OVC045
     FM311600 16006KT P6SM OVC040
     FM312000 10005KT P6SM VCSH OVC035
     FM010000 08007KT P6SM -SHRA OVC030
     FM010300 05008KT 6SM -SHRA OVC020
     FM010600 05008KT 6SM -SHRA OVC007=



000
FTUS41 KBUF 311100
TAFIAG
TAF
KIAG 311133Z 3112/0112 11004KT P6SM -DZ VCSH OVC015
     FM311500 18007KT P6SM OVC040
     FM311800 16004KT 6SM BR VCSH OVC030
     FM312000 12004KT 6SM -SHRA OVC030
     FM010300 06007KT 6SM -SHRA OVC015
     FM010700 04011KT 5SM -SHRA OVC009=



000
FTUS41 KBUF 311100
TAFJHW
TAF
KJHW 311133Z 3112/0112 17004KT P6SM OVC040
     FM311600 19006KT P6SM VCSH OVC025
     FM311900 VRB03KT 6SM -SHRA OVC020
     FM010300 08004KT 6SM -SHRA OVC007
     FM010500 05004KT 3SM -SHRA BR OVC003
      AMD LTD TO CLD VIS AND WIND=



000
FTUS41 KBUF 310900 AAA
TAFIAG
TAF AMD
KIAG 310916Z 3109/0106 VRB03KT P6SM VCSH OVC025
     FM311000 VRB03KT P6SM VCSH OVC020
     FM311300 16005KT P6SM OVC025
     FM311700 18006KT P6SM -SHRA OVC035
     FM312200 VRB03KT 6SM -SHRA OVC020=



000
FTUS41 KBUF 310900 AAA
TAFJHW
TAF AMD
KJHW 310916Z 3109/0106 VRB03KT P6SM BKN045
     FM311200 18004KT P6SM OVC030
     FM311700 19005KT P6SM VCSH OVC025
     FM311900 VRB03KT 6SM -SHRA OVC020
     FM010300 08004KT 6SM -SHRA OVC007
      AMD LTD TO CLD VIS AND WIND=



000
FTUS41 KBUF 310900 AAA
TAFART
TAF AMD
KART 310916Z 3109/0106 VRB03KT P6SM BKN040
     FM311500 11004KT P6SM OVC035
     FM311800 07004KT P6SM OVC035
     FM312300 04007KT P6SM VCSH OVC035=



000
FTUS41 KBUF 310900 AAA
TAFBUF
TAF AMD
KBUF 310916Z 3109/0106 18004KT P6SM VCSH OVC025
     FM311400 18006KT P6SM OVC035
     FM311700 19006KT P6SM VCSH OVC035
     FM311800 19005KT P6SM -SHRA OVC035
     FM312300 07004KT 6SM -SHRA OVC020=



000
FTUS41 KBUF 310900 AAA
TAFROC
TAF AMD
KROC 310916Z 3109/0106 00000KT P6SM BKN035
     FM311200 17004KT P6SM OVC035
     FM311900 14005KT P6SM VCSH OVC040
     FM312100 08005KT P6SM -SHRA OVC035
     FM312200 08006KT P6SM -SHRA OVC030=



000
FTUS41 KBUF 310500
TAFIAG
TAF
KIAG 310532Z 3106/0106 00000KT P6SM BKN070
     FM310800 VRB03KT P6SM VCSH OVC035
     FM311000 VRB03KT P6SM VCSH OVC020
     FM311300 16005KT P6SM OVC025
     FM311700 18006KT P6SM -SHRA OVC035
     FM312200 VRB03KT 6SM -SHRA OVC020=



000
FTUS41 KBUF 310500
TAFROC
TAF
KROC 310532Z 3106/0106 00000KT P6SM BKN035
     FM311200 17004KT P6SM OVC035
     FM311900 14005KT P6SM VCSH OVC040
     FM312100 08005KT P6SM -SHRA OVC035
     FM312200 08006KT P6SM -SHRA OVC030=



000
FTUS41 KBUF 310500
TAFBUF
TAF
KBUF 310532Z 3106/0106 VRB03KT P6SM BKN070
     FM310800 18004KT P6SM VCSH OVC035
     FM311400 18006KT P6SM OVC035
     FM311700 19006KT P6SM VCSH OVC035
     FM311800 19005KT P6SM -SHRA OVC035
     FM312300 07004KT 6SM -SHRA OVC020=



000
FTUS41 KBUF 310500
TAFART
TAF
KART 310532Z 3106/0106 00000KT P6SM BKN200
     FM310800 00000KT P6SM BKN040
     FM311500 11004KT P6SM OVC035
     FM311800 07004KT P6SM OVC035
     FM312300 04007KT P6SM VCSH OVC035=



000
FTUS41 KBUF 310500
TAFJHW
TAF
KJHW 310532Z 3106/0106 20004KT P6SM BKN200
     FM310800 VRB03KT P6SM BKN045
     FM311200 18004KT P6SM OVC030
     FM311700 19005KT P6SM VCSH OVC025
     FM311900 VRB03KT 6SM -SHRA OVC020
     FM010300 08004KT 6SM -SHRA OVC007
      AMD LTD TO CLD VIS AND WIND=



000
FTUS41 KBUF 310300 AAA
TAFART
TAF AMD
KART 310303Z 3103/3124 00000KT P6SM SCT050 BKN200
     FM311000 VRB03KT P6SM VCSH OVC040
     FM311400 11004KT P6SM VCSH OVC045
     FM312000 06005KT P6SM VCSH OVC035=



000
FTUS41 KBUF 310300 AAA
TAFJHW
TAF AMD
KJHW 310303Z 3103/3124 23003KT P6SM OVC035
     FM310800 19004KT P6SM OVC025
     FM311500 19007KT P6SM VCSH OVC035
     FM311700 19007KT P6SM -SHRA OVC030
     FM312000 VRB03KT 6SM -SHRA OVC020
      AMD LTD TO CLD VIS AND WIND=



000
FTUS41 KBUF 310300 AAA
TAFBUF
TAF AMD
KBUF 310303Z 3103/3124 VRB03KT P6SM BKN040
     FM310900 19005KT P6SM VCSH OVC030
     FM311400 20008KT P6SM VCSH OVC050
     FM312000 VRB03KT 6SM -SHRA OVC025=



000
FTUS41 KBUF 310300 AAA
TAFIAG
TAF AMD
KIAG 310303Z 3103/3124 VRB03KT P6SM BKN040
     FM310900 19004KT P6SM VCSH OVC025
     FM311600 19008KT P6SM VCSH OVC035
     FM312000 VRB03KT 6SM -SHRA OVC025=



000
FTUS41 KBUF 310300 AAA
TAFROC
TAF AMD
KROC 310303Z 3103/3124 VRB03KT P6SM BKN040
     FM311000 19004KT P6SM OVC030
     FM311300 18006KT P6SM OVC060
     FM312000 10005KT P6SM VCSH OVC040=



000
FTUS41 KBUF 302300
TAFART
TAF
KART 302320Z 3100/3124 00000KT P6SM BKN050
     FM311000 VRB03KT P6SM VCSH OVC040
     FM311400 11004KT P6SM VCSH OVC045
     FM312000 06005KT P6SM VCSH OVC035=



000
FTUS41 KBUF 302300
TAFIAG
TAF
KIAG 302320Z 3100/3124 29005KT P6SM OVC040
     FM310500 21004KT P6SM OVC035
     FM310800 19004KT P6SM VCSH OVC025
     FM311600 19008KT P6SM VCSH OVC035
     FM312000 VRB03KT 6SM -SHRA OVC025=



000
FTUS41 KBUF 302300
TAFBUF
TAF
KBUF 302320Z 3100/3124 26006KT P6SM OVC040
     FM310400 21004KT P6SM OVC035
     FM310800 19005KT P6SM VCSH OVC030
     FM311400 20008KT P6SM VCSH OVC050
     FM312000 VRB03KT 6SM -SHRA OVC025=



000
FTUS41 KBUF 302300
TAFJHW
TAF
KJHW 302320Z 3100/3124 27003KT P6SM OVC035
     FM310400 20004KT P6SM OVC025
     FM310800 19004KT P6SM OVC035
     FM311500 19007KT P6SM VCSH OVC035
     FM311700 19007KT P6SM -SHRA OVC030
     FM312000 VRB03KT 6SM -SHRA OVC020
      AMD LTD TO CLD VIS AND WIND=



000
FTUS41 KBUF 302300
TAFROC
TAF
KROC 302320Z 3100/3124 32004KT P6SM BKN060
     FM310200 VRB03KT P6SM BKN040
     FM311000 19004KT P6SM OVC030
     FM311300 18006KT P6SM OVC060
     FM312000 10005KT P6SM VCSH OVC040=



000
FTUS41 KBUF 302100 AAA
TAFROC
TAF AMD
KROC 302100Z 3021/3118 32006KT P6SM BKN045
     FM310100 VRB03KT P6SM BKN030
     FM311100 20004KT P6SM BKN025
     FM311500 21005KT P6SM BKN035
     FM311700 16006KT P6SM VCSH BKN035=



000
FTUS41 KBUF 302100 AAA
TAFART
TAF AMD
KART 302100Z 3021/3118 29006KT P6SM BKN045
     FM311300 13004KT P6SM BKN030
     FM311400 16005KT P6SM VCSH BKN030
     FM311700 09005KT P6SM VCSH BKN030=



000
FTUS41 KBUF 302100 AAA
TAFIAG
TAF AMD
KIAG 302100Z 3021/3118 33005KT P6SM BKN035
     FM310600 00000KT P6SM BKN025
     FM311000 16004KT P6SM VCSH BKN025
     FM311600 17005KT 6SM -SHRA BKN025=



000
FTUS41 KBUF 302100 AAA
TAFBUF
TAF AMD
KBUF 302100Z 3021/3118 25007KT P6SM BKN035
     FM310200 24004KT P6SM BKN025
     FM310800 20004KT P6SM BKN025
     FM311000 19005KT P6SM VCSH BKN030
     FM311600 17005KT 6SM -SHRA BKN025=



000
FTUS41 KBUF 302100 AAA
TAFJHW
TAF AMD
KJHW 302100Z 3021/3118 30007KT P6SM OVC035
     FM310000 VRB03KT P6SM BKN025
     FM310700 VRB03KT P6SM BKN020
     FM311300 18004KT P6SM BKN015
     FM311600 20005KT P6SM VCSH BKN015
      AMD LTD TO CLD VIS AND WIND=



000
FTUS41 KBUF 301700
TAFBUF
TAF
KBUF 301732Z 3018/3118 27007KT P6SM BKN035 BKN250
     FM310200 24004KT P6SM BKN025 BKN140
     FM310800 20004KT P6SM BKN025 OVC060
     FM311000 19005KT P6SM VCSH BKN030 OVC060
     FM311600 17005KT 6SM -SHRA BKN025 OVC060=



000
FTUS41 KBUF 301700
TAFROC
TAF
KROC 301732Z 3018/3118 30007KT P6SM BKN030 BKN250
     FM310100 VRB03KT P6SM BKN030 BKN200
     FM311100 20004KT P6SM BKN025 OVC060
     FM311500 21005KT P6SM BKN035 OVC070
     FM311700 16006KT P6SM VCSH BKN035 OVC070=



000
FTUS41 KBUF 301700
TAFART
TAF
KART 301732Z 3018/3118 29007KT P6SM BKN030 BKN250
     FM311300 13004KT P6SM BKN030 OVC060
     FM311400 16005KT P6SM VCSH BKN030 OVC060
     FM311700 09005KT P6SM VCSH BKN030 OVC060=



000
FTUS41 KBUF 301700
TAFJHW
TAF
KJHW 301732Z 3018/3118 30006KT P6SM BKN020 BKN250
     FM310000 VRB03KT P6SM BKN025 BKN200
     FM310700 VRB03KT P6SM BKN020 BKN080
     FM311300 18004KT P6SM BKN015 OVC080
     FM311600 20005KT P6SM VCSH BKN015 OVC070
      AMD LTD TO CLD VIS AND WIND=



000
FTUS41 KBUF 301700
TAFIAG
TAF
KIAG 301732Z 3018/3118 27008KT P6SM BKN035 BKN250
     FM310600 00000KT P6SM BKN025 OVC070
     FM311000 16004KT P6SM VCSH BKN025 OVC050
     FM311600 17005KT 6SM -SHRA BKN025 OVC070=



000
FTUS41 KBUF 301700
TAFROC
TAF
KROC 301732Z 3018/3118 30007KT P6SM BKN030 BKN250
     FM310100 VRB03KT P6SM BKN030 BKN200
     FM311100 20004KT P6SM BKN025 OVC060
     FM311500 21005KT P6SM BKN035 OVC070
     FM311700 16006KT P6SM VCSH BKN035 OVC070=



000
FTUS41 KBUF 301700
TAFBUF
TAF
KBUF 301732Z 3018/3118 27007KT P6SM BKN035 BKN250
     FM310200 24004KT P6SM BKN025 BKN140
     FM310800 20004KT P6SM BKN025 OVC060
     FM311000 19005KT P6SM VCSH BKN030 OVC060
     FM311600 17005KT 6SM -SHRA BKN025 OVC060=



000
FTUS41 KBUF 301700
TAFJHW
TAF
KJHW 301732Z 3018/3118 30006KT P6SM BKN020 BKN250
     FM310000 VRB03KT P6SM BKN025 BKN200
     FM310700 VRB03KT P6SM BKN020 BKN080
     FM311300 18004KT P6SM BKN015 OVC080
     FM311600 20005KT P6SM VCSH BKN015 OVC070
      AMD LTD TO CLD VIS AND WIND=



000
FTUS41 KBUF 301700
TAFART
TAF
KART 301732Z 3018/3118 29007KT P6SM BKN030 BKN250
     FM311300 13004KT P6SM BKN030 OVC060
     FM311400 16005KT P6SM VCSH BKN030 OVC060
     FM311700 09005KT P6SM VCSH BKN030 OVC060=



000
FTUS41 KBUF 301700
TAFIAG
TAF
KIAG 301732Z 3018/3118 27008KT P6SM BKN035 BKN250
     FM310600 00000KT P6SM BKN025 OVC070
     FM311000 16004KT P6SM VCSH BKN025 OVC050
     FM311600 17005KT 6SM -SHRA BKN025 OVC070=



000
FTUS41 KBUF 301500 AAB
TAFBUF
TAF AMD
KBUF 301517Z 3015/3112 27007KT P6SM FEW020 BKN030 BKN060
     FM310000 23005KT P6SM BKN030
     FM310900 20005KT P6SM VCSH OVC025
     FM311100 20004KT 5SM -SHRA OVC025=



000
FTUS41 KBUF 301400 AAA
TAFJHW
TAF AMD
KJHW 301500Z 3015/3112 30007KT P6SM BKN025 BKN035
     FM302000 29008KT P6SM BKN025
     FM310400 23004KT P6SM BKN020
     FM310900 18004KT P6SM OVC020
     FM311100 19005KT P6SM VCSH OVC025
      AMD LTD TO CLD VIS AND WIND=



000
FTUS41 KBUF 301400 AAA
TAFART
TAF AMD
KART 301500Z 3015/3112 32005KT P6SM OVC035
     FM301800 29004KT P6SM BKN040 BKN070
     FM302200 26006KT P6SM BKN070
     FM310100 00000KT P6SM BKN035
     FM310900 VRB04KT P6SM BKN030=



000
FTUS41 KBUF 301400 AAA
TAFROC
TAF AMD
KROC 301500Z 3015/3112 30009KT P6SM BKN026 BKN035 BKN070
     FM301600 29009KT P6SM FEW026 BKN035 BKN070
     FM302200 29005KT P6SM BKN060
     FM302300 VRB03KT P6SM BKN040
     FM310700 21005KT P6SM BKN030=



000
FTUS41 KBUF 301400 AAA
TAFBUF
TAF AMD
KBUF 301500Z 3015/3112 27007KT P6SM FEW020 BKN035 BKN060
     FM310000 23005KT P6SM BKN030
     FM310900 20005KT P6SM VCSH OVC025
     FM311100 20004KT 5SM -SHRA OVC025=



000
FTUS41 KBUF 301400 AAA
TAFIAG
TAF AMD
KIAG 301500Z 3015/3112 29007KT P6SM FEW020 BKN027 BKN060
     FM301600 28007KT P6SM FEW020 BKN035 BKN060
     FM310000 VRB03KT P6SM BKN035
     FM310800 22004KT P6SM VCSH OVC035
     FM311000 VRB03KT 5SM -SHRA OVC025=



000
FTUS41 KBUF 301100
TAFBUF
TAF
KBUF 301134Z 3012/3112 25006KT P6SM SCT025
     FM301400 27007KT P6SM BKN035
     FM310000 23005KT P6SM BKN030
     FM310900 20005KT P6SM VCSH OVC025
     FM311100 20004KT 5SM -SHRA OVC025=



000
FTUS41 KBUF 301100
TAFJHW
TAF
KJHW 301134Z 3012/3112 31005KT P6SM VCSH OVC035
     FM301400 30007KT P6SM BKN035
     FM302000 29008KT P6SM BKN025
     FM310400 23004KT P6SM BKN020
     FM310900 18004KT P6SM OVC020
     FM311100 19005KT P6SM VCSH OVC025
      AMD LTD TO CLD VIS AND WIND=



000
FTUS41 KBUF 301100
TAFIAG
TAF
KIAG 301134Z 3012/3112 29007KT P6SM SCT035
     FM301500 29007KT P6SM BKN040
     FM301700 28007KT P6SM SCT050
     FM310000 VRB03KT P6SM BKN035
     FM310800 22004KT P6SM VCSH OVC035
     FM311000 VRB03KT 5SM -SHRA OVC025=



000
FTUS41 KBUF 301100
TAFROC
TAF
KROC 301134Z 3012/3112 26008KT P6SM SCT045
     FM301400 28009KT P6SM BKN040
     FM302200 29005KT P6SM BKN060
     FM302300 VRB03KT P6SM BKN040
     FM310700 21005KT P6SM BKN030=



000
FTUS41 KBUF 301100
TAFART
TAF
KART 301134Z 3012/3112 32005KT P6SM BKN040
     FM301800 29004KT P6SM BKN070
     FM302200 26006KT P6SM BKN070
     FM310100 00000KT P6SM BKN035
     FM310900 VRB04KT P6SM BKN030=



000
FTUS41 KBUF 300900 AAA
TAFIAG
TAF AMD
KIAG 300912Z 3009/3106 28005KT P6SM SCT025
     FM301400 28007KT P6SM BKN050
     FM310000 VRB03KT P6SM BKN035
     FM310200 24004KT P6SM BKN035
     FM310400 24004KT P6SM BKN030=



000
FTUS41 KBUF 300900 AAA
TAFROC
TAF AMD
KROC 300912Z 3009/3106 27008KT P6SM BKN025
     FM301400 28009KT P6SM BKN035
     FM301700 29009KT P6SM BKN060
     FM302000 29007KT P6SM BKN080
     FM310300 24004KT P6SM BKN035=



000
FTUS41 KBUF 300900 AAA
TAFART
TAF AMD
KART 300912Z 3009/3106 29004KT P6SM BKN030
     FM301300 VRB03KT P6SM BKN035
     FM301500 35005KT P6SM SCT045
     FM301700 30005KT P6SM BKN060
     FM310100 00000KT P6SM BKN035=



000
FTUS41 KBUF 300900 AAA
TAFBUF
TAF AMD
KBUF 300912Z 3009/3106 27005KT P6SM BKN025
     FM301400 28006KT P6SM BKN035
     FM302300 24006KT P6SM BKN035
     FM310000 23005KT P6SM BKN030=



000
FTUS41 KBUF 300900 AAA
TAFJHW
TAF AMD
KJHW 300912Z 3009/3106 30005KT P6SM SCT015
     FM301300 29008KT P6SM BKN025
     FM301900 29008KT P6SM BKN035
     FM310100 26004KT P6SM BKN020
      AMD LTD TO CLD VIS AND WIND=



000
FTUS41 KBUF 300500
TAFIAG
TAF
KIAG 300531Z 3006/3106 28006KT P6SM BKN050
     FM300700 28005KT P6SM BKN025
     FM301400 28007KT P6SM BKN050
     FM310000 VRB03KT P6SM BKN035
     FM310200 24004KT P6SM BKN035
     FM310400 24004KT P6SM BKN030=



000
FTUS41 KBUF 300500
TAFBUF
TAF
KBUF 300531Z 3006/3106 27006KT P6SM BKN045
     FM300900 27005KT P6SM BKN025
     FM301400 28006KT P6SM BKN035
     FM302300 24006KT P6SM BKN035
     FM310000 23005KT P6SM BKN030=



000
FTUS41 KBUF 300500
TAFJHW
TAF
KJHW 300531Z 3006/3106 30006KT P6SM VCSH OVC035
     FM300900 30005KT P6SM OVC012
     FM301300 29008KT P6SM BKN025
     FM301900 29008KT P6SM BKN035
     FM310100 26004KT P6SM BKN020
      AMD LTD TO CLD VIS AND WIND=



000
FTUS41 KBUF 300500
TAFART
TAF
KART 300531Z 3006/3106 28007KT P6SM OVC050
     FM300900 29004KT P6SM BKN030
     FM301300 VRB03KT P6SM BKN035
     FM301500 35005KT P6SM SCT045
     FM301700 30005KT P6SM BKN060
     FM310100 00000KT P6SM BKN035=



000
FTUS41 KBUF 300500
TAFROC
TAF
KROC 300531Z 3006/3106 26008KT P6SM BKN035
     FM300800 27008KT P6SM BKN025
     FM301400 28009KT P6SM BKN035
     FM301700 29009KT P6SM BKN060
     FM302000 29007KT P6SM BKN080
     FM310300 24004KT P6SM BKN035=



000
FTUS41 KBUF 300300 AAA
TAFBUF
TAF AMD
KBUF 300307Z 3003/3024 29010KT P6SM SCT035 OVC070
     FM300600 27007KT P6SM BKN050
     FM300800 27005KT P6SM BKN045
     FM301700 27008KT P6SM BKN050=



000
FTUS41 KBUF 300300 AAA
TAFART
TAF AMD
KART 300307Z 3003/3024 29008KT P6SM OVC060
     FM300600 28004KT P6SM BKN040
     FM301400 34004KT P6SM BKN035
     FM301700 30004KT P6SM SCT060
     FM302100 27006KT P6SM BKN070=



000
FTUS41 KBUF 300300 AAA
TAFROC
TAF AMD
KROC 300307Z 3003/3024 29009KT P6SM BKN035
     FM300500 26008KT P6SM BKN040
     FM300800 27006KT P6SM BKN030
     FM301500 28009KT P6SM BKN035
     FM301800 29008KT P6SM BKN050=



000
FTUS41 KBUF 300300 AAB
TAFJHW
TAF AMD
KJHW 300307Z 3003/3024 29007KT P6SM -SHRA OVC025
     FM300500 30006KT P6SM VCSH OVC025
     FM300800 30005KT P6SM OVC020
     FM301600 29008KT P6SM BKN035
      AMD LTD TO CLD VIS AND WIND=



000
FTUS41 KBUF 300300 AAA
TAFIAG
TAF AMD
KIAG 300307Z 3003/3024 30010KT P6SM SCT035 BKN070
     FM300700 28005KT P6SM BKN045
     FM301700 28008KT P6SM BKN050=



000
FTUS41 KBUF 300100 AAA
TAFJHW
TAF AMD
KJHW 300150Z 3002/3024 25008KT P6SM -SHRA OVC020
     FM300400 30006KT P6SM VCSH OVC025
     FM300800 30005KT P6SM OVC020
     FM301600 29008KT P6SM BKN035
      AMD LTD TO CLD VIS AND WIND=



000
FTUS41 KBUF 292300
TAFART
TAF
KART 292324Z 3000/3024 25008KT P6SM OVC060
     FM300600 28004KT P6SM BKN040
     FM301400 34004KT P6SM BKN035
     FM301700 30004KT P6SM SCT060
     FM302100 27006KT P6SM BKN070=



000
FTUS41 KBUF 292300
TAFROC
TAF
KROC 292324Z 3000/3024 29009KT P6SM OVC050
     FM300500 26008KT P6SM BKN040
     FM300800 27006KT P6SM BKN030
     FM301500 28009KT P6SM BKN035
     FM301800 29008KT P6SM BKN050=



000
FTUS41 KBUF 292300
TAFBUF
TAF
KBUF 292324Z 3000/3024 26008KT P6SM OVC040
     FM300400 27007KT P6SM BKN050
     FM300800 27005KT P6SM BKN045
     FM301700 27008KT P6SM BKN050=



000
FTUS41 KBUF 292300
TAFIAG
TAF
KIAG 292324Z 3000/3024 27010KT P6SM OVC060
     FM300300 27008KT P6SM BKN060
     FM300900 28005KT P6SM BKN045
     FM301700 28008KT P6SM BKN050=



000
FTUS41 KBUF 292300
TAFJHW
TAF
KJHW 292324Z 3000/3024 27010KT P6SM -SHRA OVC040
     FM300300 30006KT P6SM VCSH OVC025
     FM300800 30005KT P6SM OVC020
     FM301600 29008KT P6SM BKN035
      AMD LTD TO CLD VIS AND WIND=



000
FTUS41 KBUF 292100 AAA
TAFART
TAF AMD
KART 292108Z 2921/3018 24014G20KT P6SM OVC070
     FM300000 25013KT P6SM BKN040
     FM300400 26009KT P6SM OVC030
     FM300600 27008KT P6SM OVC020
     FM301000 29005KT P6SM BKN035=



000
FTUS41 KBUF 292100 AAA
TAFJHW
TAF AMD
KJHW 292108Z 2921/3018 27010KT P6SM OVC060
     FM300000 26012KT P6SM VCSH BKN025
     FM300700 29007KT 6SM -SHRA OVC012
     FM301500 30007KT P6SM BKN012
      AMD LTD TO CLD VIS AND WIND=



000
FTUS41 KBUF 292100 AAA
TAFIAG
TAF AMD
KIAG 292108Z 2921/3018 27012KT P6SM BKN050
     FM292200 28012KT P6SM VCSH BKN035
     FM300400 27010KT P6SM BKN040
     FM300800 28006KT P6SM BKN040=



000
FTUS41 KBUF 292100 AAA
TAFROC
TAF AMD
KROC 292108Z 2921/3018 24012KT P6SM BKN050
     FM300200 27011KT P6SM BKN025
     FM300700 27008KT P6SM BKN025=



000
FTUS41 KBUF 292100 AAA
TAFBUF
TAF AMD
KBUF 292108Z 2921/3018 25014G22KT P6SM BKN060
     FM292200 27013G18KT P6SM -SHRA BKN035
      TEMPO 2922/2924 4SM SHRA
     FM300100 27010KT P6SM BKN035
     FM300800 27006KT P6SM BKN040
     FM301000 26005KT P6SM BKN040=



000
FTUS41 KBUF 291700
TAFART
TAF
KART 291731Z 2918/3018 23009KT P6SM OVC060
     FM292100 25015G23KT P6SM BKN120
     FM300000 25013KT P6SM BKN035
     FM300400 26009KT P6SM OVC030
     FM300600 27008KT P6SM OVC020
     FM301000 29005KT P6SM BKN035=



000
FTUS41 KBUF 291700
TAFIAG
TAF
KIAG 291731Z 2918/3018 24013KT P6SM FEW025 BKN045
     FM292300 28012KT P6SM BKN035
     FM300400 27010KT P6SM BKN040
     FM300800 28006KT P6SM BKN040=



000
FTUS41 KBUF 291700
TAFROC
TAF
KROC 291731Z 2918/3018 27009KT P6SM BKN060 OVC070
     FM292100 26011G20KT P6SM BKN030
     FM300200 27011KT P6SM BKN025
     FM300700 27008KT P6SM BKN025=



000
FTUS41 KBUF 291700
TAFJHW
TAF
KJHW 291731Z 2918/3018 22010KT P6SM FEW030 BKN045
     FM292300 26012KT P6SM VCSH BKN025
     FM300700 29007KT 6SM -SHRA OVC012
     FM301500 30007KT P6SM BKN012
      AMD LTD TO CLD VIS AND WIND=



000
FTUS41 KBUF 291700
TAFBUF
TAF
KBUF 291731Z 2918/3018 25014G23KT P6SM VCSH SCT035 BKN060
     FM292300 27012G18KT P6SM BKN035
     FM300100 27010KT P6SM BKN035
     FM300800 27006KT P6SM BKN040
     FM301000 26005KT P6SM BKN040=



000
FTUS41 KBUF 291500 AAA
TAFBUF
TAF AMD
KBUF 291502Z 2915/3012 25013G20KT P6SM SCT040 OVC060
     FM291600 25015G21KT P6SM VCSH BKN030
     FM292000 25017G23KT P6SM BKN035
     FM300000 27011KT P6SM BKN035
     FM300700 27006KT P6SM BKN025
     FM301000 26005KT P6SM BKN040=



000
FTUS41 KBUF 291500 AAA
TAFIAG
TAF AMD
KIAG 291502Z 2915/3012 26013G20KT P6SM SCT050 BKN070
     FM291700 25016G22KT P6SM BKN080
     FM292100 25016G22KT P6SM BKN050
     FM300200 27010KT P6SM BKN040
     FM300800 28006KT P6SM BKN040=



000
FTUS41 KBUF 291500 AAA
TAFJHW
TAF AMD
KJHW 291502Z 2915/3012 24010KT P6SM OVC040
     FM292300 27012KT P6SM VCSH OVC015
     FM300700 29007KT P6SM OVC012
     FM301000 30006KT P6SM OVC007
      AMD LTD TO CLD VIS AND WIND=



000
FTUS41 KBUF 291500 AAA
TAFART
TAF AMD
KART 291502Z 2915/3012 25012G20KT P6SM OVC060
     FM300000 25013KT P6SM BKN035
     FM300400 26009KT P6SM OVC030
     FM300600 27008KT P6SM OVC020
     FM301000 29005KT P6SM BKN035=



000
FTUS41 KBUF 291500 AAA
TAFROC
TAF AMD
KROC 291502Z 2915/3012 26010G20KT P6SM OVC035
     FM291900 25013KT P6SM BKN030
     FM292200 25014G20KT P6SM BKN035
     FM300200 27011KT P6SM BKN025
     FM300700 27008KT P6SM BKN025=



000
FTUS41 KBUF 291100
TAFIAG
TAF
KIAG 291131Z 2912/3012 25011KT P6SM BKN050
     FM291300 25012KT P6SM BKN200
     FM291600 25016G22KT P6SM BKN080
     FM291700 25016G22KT P6SM BKN040
     FM300200 27010KT P6SM BKN040
     FM300800 28006KT P6SM BKN040=



000
FTUS41 KBUF 291100
TAFROC
TAF
KROC 291131Z 2912/3012 26011KT P6SM BKN100
     FM291700 25013KT P6SM BKN030
     FM292000 25014G20KT P6SM BKN035
     FM292300 26012KT P6SM BKN030
     FM300200 27011KT P6SM BKN025
     FM300700 27008KT P6SM BKN025=



000
FTUS41 KBUF 291100
TAFJHW
TAF
KJHW 291131Z 2912/3012 22008KT P6SM BKN140
     FM291500 25013KT P6SM BKN025
     FM292300 27012KT P6SM VCSH OVC015
     FM300700 29007KT P6SM OVC012
     FM301000 30006KT P6SM OVC007
      AMD LTD TO CLD VIS AND WIND=



000
FTUS41 KBUF 291100
TAFBUF
TAF
KBUF 291131Z 2912/3012 26010KT P6SM BKN060
     FM291600 25015G21KT P6SM VCSH BKN030
     FM292000 25017G23KT P6SM BKN035
     FM300000 27011KT P6SM BKN035
     FM300700 27006KT P6SM BKN025
     FM301000 26005KT P6SM BKN040=



000
FTUS41 KBUF 291100
TAFART
TAF
KART 291131Z 2912/3012 24012KT P6SM BKN100
     FM300000 25013KT P6SM BKN035
     FM300400 26009KT P6SM OVC030
     FM300600 27008KT P6SM OVC020
     FM300700 27007KT P6SM OVC025
     FM301000 29005KT P6SM BKN035=



000
FTUS41 KBUF 290900 AAA
TAFIAG
TAF AMD
KIAG 290906Z 2909/3006 23011KT P6SM SCT250
     FM291500 25014KT P6SM SCT200
     FM291700 25016G22KT P6SM SCT040
     FM291800 25016G23KT P6SM BKN035
     FM300100 27011KT P6SM BKN035
     FM300200 27010KT P6SM SCT040=



000
FTUS41 KBUF 290900 AAA
TAFROC
TAF AMD
KROC 290906Z 2909/3006 25011KT P6SM SCT250
     FM291100 24008KT P6SM BKN100
     FM291600 25012KT P6SM BKN035
     FM292000 25014G20KT P6SM BKN035
     FM292300 26012KT P6SM BKN030
     FM300200 27011KT P6SM SCT025=



000
FTUS41 KBUF 290900 AAA
TAFBUF
TAF AMD
KBUF 290906Z 2909/3006 24010KT P6SM BKN045
     FM291400 25012KT P6SM VCSH BKN035
     FM291600 25015G21KT P6SM VCSH BKN030
     FM300000 27011KT P6SM BKN035
     FM300500 27007KT P6SM BKN035=



000
FTUS41 KBUF 290900 AAA
TAFART
TAF AMD
KART 290906Z 2909/3006 22011KT P6SM BKN015
     FM291100 24011KT P6SM BKN250
     FM300000 25013KT P6SM BKN035
     FM300400 26009KT P6SM BKN030=



000
FTUS41 KBUF 290900 AAA
TAFJHW
TAF AMD
KJHW 290906Z 2909/3006 22008KT P6SM SCT250
     FM291100 23008KT P6SM BKN110
     FM291400 24011KT P6SM BKN040
     FM292000 26015KT P6SM BKN020
     FM292300 27012KT P6SM VCSH OVC012
     FM300300 29008KT P6SM VCSH OVC015
      AMD LTD TO CLD VIS AND WIND=



000
FTUS41 KBUF 290500
TAFART
TAF
KART 290539Z 2906/3006 22007KT P6SM SCT007 BKN035
     FM290800 24011KT P6SM BKN040
     FM291000 24011KT P6SM BKN250
     FM300000 25013KT P6SM BKN035
     FM300400 26009KT P6SM BKN030=



000
FTUS41 KBUF 290500
TAFJHW
TAF
KJHW 290539Z 2906/3006 22008KT P6SM SCT250
     FM291100 23008KT P6SM BKN110
     FM291400 24011KT P6SM BKN040
     FM292000 26015KT P6SM BKN020
     FM292300 27012KT P6SM VCSH OVC012
     FM300300 29008KT P6SM VCSH OVC015
      AMD LTD TO CLD VIS AND WIND=



000
FTUS41 KBUF 290500
TAFROC
TAF
KROC 290539Z 2906/3006 25011KT P6SM SCT250
     FM291100 24008KT P6SM BKN100
     FM291600 25012KT P6SM BKN035
     FM292000 25014G20KT P6SM BKN035
     FM292300 26012KT P6SM BKN030
     FM300200 27011KT P6SM SCT025=



000
FTUS41 KBUF 290500
TAFBUF
TAF
KBUF 290539Z 2906/3006 23013G21KT P6SM BKN015
     FM290800 24010KT P6SM BKN045
     FM291400 25012KT P6SM VCSH BKN035
     FM291600 25015G21KT P6SM VCSH BKN030
     FM300000 27011KT P6SM BKN035
     FM300500 27007KT P6SM BKN035=



000
FTUS41 KBUF 290500
TAFIAG
TAF
KIAG 290539Z 2906/3006 23011KT P6SM SCT250
     FM291500 25014KT P6SM SCT200
     FM291700 25016G22KT P6SM SCT040
     FM291800 25016G23KT P6SM BKN035
     FM300100 27011KT P6SM BKN035
     FM300200 27010KT P6SM SCT040=



000
FTUS41 KBUF 290300 AAD
TAFBUF
TAF AMD
KBUF 290344Z 2904/2924 25015G25KT P6SM OVC012
     FM290500 25012G22KT P6SM SCT012 BKN250
     FM290600 25012KT P6SM BKN200
     FM291000 24009KT P6SM BKN040
     FM291400 25011KT 6SM -SHRA BKN035
     FM291700 25015G25KT P6SM VCSH BKN040=



000
FTUS41 KBUF 290300 AAC
TAFIAG
TAF AMD
KIAG 290343Z 2904/2924 24013G20KT P6SM SCT012 BKN250
     FM290600 25011KT P6SM BKN200
     FM291500 25014G25KT P6SM BKN035=



000
FTUS41 KBUF 290300 AAB
TAFIAG
TAF AMD
KIAG 290302Z 2903/2924 24013G20KT P6SM OVC012
     FM290600 25011KT P6SM BKN200
     FM291500 25014G25KT P6SM BKN035=



000
FTUS41 KBUF 290300 AAA
TAFROC
TAF AMD
KROC 290302Z 2903/2924 25010KT P6SM OVC015
     FM290600 25008KT P6SM BKN200
     FM291200 24008KT P6SM BKN045
     FM291500 25013G21KT P6SM VCSH BKN035
     FM292000 25015G24KT P6SM BKN040=



000
FTUS41 KBUF 290300 AAB
TAFART
TAF AMD
KART 290302Z 2903/2924 23012KT 3SM -SHRA BR OVC025
     FM290500 23012KT P6SM OVC025
     FM290800 23010KT P6SM BKN250
     FM291500 24016G23KT P6SM BKN200=



000
FTUS41 KBUF 290300 AAB
TAFJHW
TAF AMD
KJHW 290302Z 2903/2924 25012G18KT P6SM OVC015
     FM291200 23010KT P6SM BKN045
     FM291500 24013G20KT P6SM BKN040
      AMD LTD TO CLD VIS AND WIND=



000
FTUS41 KBUF 290300 AAC
TAFBUF
TAF AMD
KBUF 290302Z 2903/2924 25013G20KT P6SM OVC008
     FM290600 25011KT P6SM BKN200
     FM291000 24009KT P6SM BKN040
     FM291400 25011KT 6SM -SHRA BKN035
     FM291700 25015G25KT P6SM VCSH BKN040=



000
FTUS41 KBUF 290200 AAB
TAFBUF
TAF AMD
KBUF 290225Z 2902/2924 24013KT P6SM OVC008
     FM290300 24016G23KT P6SM SCT250
     FM290700 25011KT P6SM BKN200
     FM291000 24009KT P6SM BKN040
     FM291400 25011KT 6SM -SHRA BKN035
     FM291700 25015G25KT P6SM VCSH BKN040=



000
FTUS41 KBUF 290100 AAA
TAFIAG
TAF AMD
KIAG 290133Z 2902/2924 23014KT P6SM OVC008
     FM290230 25014G22KT P6SM SCT250
     FM290700 25011KT P6SM BKN200
     FM291500 25014G25KT P6SM BKN035=



000
FTUS41 KBUF 290100 AAA
TAFJHW
TAF AMD
KJHW 290133Z 2902/2924 24014KT P6SM OVC025
     FM290300 25009KT P6SM BKN200
     FM291200 23010KT P6SM BKN045
     FM291500 24013G20KT P6SM BKN040
      AMD LTD TO CLD VIS AND WIND=



000
FTUS41 KBUF 290100 AAA
TAFIAG
TAF AMD
KIAG 290133Z 2902/2924 23014KT P6SM OVC008
     FM290230 25014G22KT P6SM SCT250
     FM290700 25011KT P6SM BKN200
     FM291500 25014G25KT P6SM BKN035=



000
FTUS41 KBUF 290100 AAA
TAFJHW
TAF AMD
KJHW 290133Z 2902/2924 24014KT P6SM OVC025
     FM290300 25009KT P6SM BKN200
     FM291200 23010KT P6SM BKN045
     FM291500 24013G20KT P6SM BKN040
      AMD LTD TO CLD VIS AND WIND=



000
FTUS41 KBUF 290100 AAA
TAFBUF
TAF AMD
KBUF 290132Z 2902/2924 24013G22KT P6SM OVC008
     FM290230 24016G23KT P6SM SCT250
     FM290700 25011KT P6SM BKN200
     FM291000 24009KT P6SM BKN040
     FM291400 25011KT 6SM -SHRA BKN035
     FM291700 25015G25KT P6SM VCSH BKN040=



000
FTUS41 KBUF 290100 AAA
TAFBUF
TAF AMD
KBUF 290132Z 2902/2924 24013G22KT P6SM OVC008
     FM290230 24016G23KT P6SM SCT250
     FM290700 25011KT P6SM BKN200
     FM291000 24009KT P6SM BKN040
     FM291400 25011KT 6SM -SHRA BKN035
     FM291700 25015G25KT P6SM VCSH BKN040=



000
FTUS41 KBUF 290100 AAA
TAFART
TAF AMD
KART 290102Z 2901/2924 23008KT 4SM -SHRA BR OVC060
     FM290400 23012KT P6SM OVC060
     FM290600 23010KT P6SM BKN250
     FM291500 24016G23KT P6SM BKN200=



000
FTUS41 KBUF 282300
TAFROC
TAF
KROC 282320Z 2900/2924 26014G23KT 6SM -SHRA OVC060
     FM290200 24013KT P6SM BKN050
     FM290400 24012KT P6SM SCT250
     FM290800 25008KT P6SM BKN200
     FM291200 24008KT P6SM BKN045
     FM291500 25013G21KT P6SM VCSH BKN035
     FM292000 25015G24KT P6SM BKN040=



000
FTUS41 KBUF 282300
TAFJHW
TAF
KJHW 282320Z 2900/2924 23008KT 6SM -SHRA OVC050
     FM290100 24012KT P6SM OVC040
     FM290400 25009KT P6SM BKN200
     FM291200 23010KT P6SM BKN045
     FM291500 24013G20KT P6SM BKN040
      AMD LTD TO CLD VIS AND WIND=



000
FTUS41 KBUF 282300
TAFBUF
TAF
KBUF 282320Z 2900/2924 24015KT 6SM -SHRA OVC060
     FM290100 25017G26KT P6SM OVC060
     FM290300 24016G23KT P6SM SCT250
     FM290700 25011KT P6SM BKN200
     FM291000 24009KT P6SM BKN040
     FM291400 25011KT 6SM -SHRA BKN035
     FM291700 25015G25KT P6SM VCSH BKN040=



000
FTUS41 KBUF 282300
TAFART
TAF
KART 282320Z 2900/2924 25013G22KT 6SM -SHRA OVC060
     FM290400 23012KT P6SM OVC060
     FM290600 23010KT P6SM BKN250
     FM291500 24016G23KT P6SM BKN200=



000
FTUS41 KBUF 282300
TAFIAG
TAF
KIAG 282320Z 2900/2924 25016G22KT 6SM -SHRA OVC060
     FM290100 24016G24KT P6SM OVC060
     FM290300 25014G22KT P6SM SCT250
     FM290700 25011KT P6SM BKN200
     FM291500 25014G25KT P6SM BKN035=



000
FTUS41 KBUF 282100 AAA
TAFROC
TAF AMD
KROC 282105Z 2821/2918 25013KT P6SM VCSH BKN060
      TEMPO 2821/2824 6SM -SHRA
     FM290000 25012KT 6SM -SHRA OVC050
     FM290400 24014KT P6SM SCT060 BKN110
     FM291100 24011KT P6SM BKN050
     FM291400 25012G20KT P6SM BKN035=



000
FTUS41 KBUF 282100 AAA
TAFBUF
TAF AMD
KBUF 282105Z 2821/2918 26015G25KT P6SM VCSH BKN060
      TEMPO 2822/2902 6SM -SHRA BKN040
     FM290200 24016KT P6SM SCT060 BKN110
     FM291000 25011KT P6SM BKN120
     FM291400 25014G22KT P6SM BKN035=



000
FTUS41 KBUF 282100 AAA
TAFART
TAF AMD
KART 282105Z 2821/2918 20014KT P6SM BKN150
     FM290000 21011KT 6SM -SHRA OVC040
     FM290600 23013KT P6SM BKN050
     FM290900 24014KT P6SM BKN035
     FM291600 24016G26KT P6SM BKN050=



000
FTUS41 KBUF 282100 AAA
TAFIAG
TAF AMD
KIAG 282105Z 2821/2918 26015G25KT P6SM VCSH BKN060
      TEMPO 2823/2902 6SM SHRA BKN040
     FM290200 23017KT P6SM SCT060 BKN110
     FM291000 24012KT P6SM BKN050
     FM291400 25017G24KT P6SM BKN035=



000
FTUS41 KBUF 282100 AAA
TAFJHW
TAF AMD
KJHW 282105Z 2821/2918 23015KT P6SM VCSH BKN060
      TEMPO 2821/2901 6SM -SHRA BKN040
     FM290200 25015KT P6SM OVC030
     FM291500 25016G22KT P6SM BKN025
      AMD LTD TO CLD VIS AND WIND=



    US Dept of Commerce
    National Oceanic and Atmospheric Administration
    National Weather Service
    1325 East West Highway
    Silver Spring, MD 20910
    Page Author: NWS Internet Services Team
Disclaimer
Information Quality
Credits
Glossary
Privacy Policy
Freedom of Information Act (FOIA)
About Us
Career Opportunities